createdAt,value
2018-02-20T00:01:44.071Z,27.62
2018-02-20T00:04:11.642Z,26.52
2018-02-20T00:06:40.067Z,24.67
2018-02-20T00:09:07.614Z,25.73
2018-02-20T00:11:35.212Z,27.05
2018-02-20T00:14:02.767Z,24.98
2018-02-20T00:16:30.342Z,27.00
2018-02-20T00:18:57.942Z,23.85
2018-02-20T00:21:25.498Z,25.48
2018-02-20T00:23:53.082Z,24.73
2018-02-20T00:26:20.652Z,25.12
2018-02-20T00:31:22.245Z,24.75
2018-02-20T00:33:49.867Z,25.95
2018-02-20T00:36:17.431Z,25.20
2018-02-20T00:38:45.043Z,25.08
2018-02-20T00:41:13.555Z,25.83
2018-02-20T00:43:41.255Z,25.83
2018-02-20T00:46:08.904Z,25.45
2018-02-20T00:48:36.451Z,26.70
2018-02-20T00:51:04.051Z,27.00
2018-02-20T00:53:32.394Z,26.35
2018-02-20T00:55:59.986Z,27.60
2018-02-20T00:58:28.303Z,27.83
2018-02-20T01:00:55.895Z,27.62
2018-02-20T01:03:23.480Z,25.10
2018-02-20T01:05:51.835Z,27.95
2018-02-20T01:08:20.164Z,26.50
2018-02-20T01:10:47.780Z,25.60
2018-02-20T01:13:15.331Z,26.15
2018-02-20T01:15:42.931Z,26.52
2018-02-20T01:18:10.482Z,27.00
2018-02-20T01:20:38.043Z,26.80
2018-02-20T01:23:05.735Z,25.40
2018-02-20T01:25:33.316Z,23.95
2018-02-20T01:28:00.898Z,25.37
2018-02-20T01:30:29.339Z,26.40
2018-02-20T01:32:56.927Z,25.12
2018-02-20T01:35:24.475Z,26.90
2018-02-20T01:37:52.075Z,26.08
2018-02-20T01:40:19.826Z,24.15
2018-02-20T01:42:48.234Z,23.98
2018-02-20T01:45:15.827Z,25.90
2018-02-20T01:47:43.378Z,26.55
2018-02-20T01:50:10.976Z,27.48
2018-02-20T01:52:39.512Z,28.38
2018-02-20T01:55:07.104Z,27.20
2018-02-20T01:57:34.690Z,22.65
2018-02-20T02:00:02.406Z,24.87
2018-02-20T02:02:29.966Z,28.60
2018-02-20T02:04:57.526Z,24.35
2018-02-20T02:07:25.121Z,25.95
2018-02-20T02:09:53.467Z,27.80
2018-02-20T02:12:21.070Z,26.55
2018-02-20T02:14:48.625Z,27.55
2018-02-20T02:17:16.286Z,27.67
2018-02-20T02:19:43.895Z,27.65
2018-02-20T02:22:11.454Z,28.27
2018-02-20T02:24:39.050Z,30.05
2018-02-20T02:27:07.391Z,30.95
2018-02-20T02:29:35.103Z,29.35
2018-02-20T02:32:02.682Z,27.92
2018-02-20T02:34:30.291Z,28.40
2018-02-20T02:36:57.850Z,28.65
2018-02-20T02:39:26.191Z,28.08
2018-02-20T02:41:53.935Z,30.20
2018-02-20T02:44:21.498Z,28.95
2018-02-20T02:46:49.149Z,27.33
2018-02-20T02:49:16.719Z,30.00
2018-02-20T02:51:44.403Z,29.20
2018-02-20T02:54:11.958Z,31.30
2018-02-20T02:56:39.519Z,31.35
2018-02-20T02:59:07.103Z,30.92
2018-02-20T03:01:35.575Z,32.10
2018-02-20T03:04:03.178Z,29.45
2018-02-20T03:06:30.736Z,31.23
2018-02-20T03:08:58.326Z,30.17
2018-02-20T03:11:25.883Z,31.75
2018-02-20T03:13:53.474Z,30.60
2018-02-20T03:16:21.020Z,30.92
2018-02-20T03:18:48.775Z,31.40
2018-02-20T03:21:16.335Z,34.08
2018-02-20T03:23:43.903Z,33.13
2018-02-20T03:26:11.495Z,29.92
2018-02-20T03:28:39.066Z,31.55
2018-02-20T03:31:06.655Z,29.95
2018-02-20T03:33:34.211Z,31.42
2018-02-20T03:36:01.797Z,30.62
2018-02-20T03:38:29.337Z,32.17
2018-02-20T03:40:57.018Z,29.65
2018-02-20T03:43:25.356Z,31.45
2018-02-20T03:45:52.942Z,29.25
2018-02-20T03:48:20.523Z,31.48
2018-02-20T03:50:48.838Z,30.27
2018-02-20T03:53:16.427Z,32.28
2018-02-20T03:55:43.992Z,29.35
2018-02-20T03:58:11.707Z,33.20
2018-02-20T04:00:39.326Z,28.73
2018-02-20T04:03:06.914Z,31.80
2018-02-20T04:05:34.478Z,29.12
2018-02-20T04:08:02.083Z,29.40
2018-02-20T04:10:29.643Z,30.65
2018-02-20T04:12:57.207Z,28.65
2018-02-20T04:15:24.804Z,29.33
2018-02-20T04:17:52.360Z,25.70
2018-02-20T04:20:20.850Z,28.15
2018-02-20T04:22:48.406Z,30.23
2018-02-20T04:25:16.019Z,28.42
2018-02-20T04:27:43.631Z,28.23
2018-02-20T04:30:11.231Z,29.73
2018-02-20T04:32:38.850Z,30.52
2018-02-20T04:35:06.413Z,28.73
2018-02-20T04:37:34.019Z,28.90
2018-02-20T04:40:02.354Z,29.17
2018-02-20T04:42:30.088Z,30.15
2018-02-20T04:44:58.434Z,30.12
2018-02-20T04:47:26.027Z,28.10
2018-02-20T04:49:54.350Z,29.12
2018-02-20T04:52:21.943Z,27.02
2018-02-20T04:54:50.306Z,27.17
2018-02-20T04:57:19.367Z,27.83
2018-02-20T04:59:46.950Z,28.73
2018-02-20T05:02:14.522Z,26.50
2018-02-20T05:04:42.108Z,27.83
2018-02-20T05:07:10.432Z,27.95
2018-02-20T05:09:38.019Z,27.20
2018-02-20T05:12:05.582Z,29.37
2018-02-20T05:14:33.314Z,29.25
2018-02-20T05:17:00.873Z,28.75
2018-02-20T05:19:28.433Z,30.33
2018-02-20T05:21:56.181Z,29.02
2018-02-20T05:24:23.786Z,28.85
2018-02-20T05:26:52.176Z,29.77
2018-02-20T05:29:20.520Z,27.87
2018-02-20T05:31:49.719Z,29.00
2018-02-20T05:34:17.282Z,27.77
2018-02-20T05:36:44.843Z,29.33
2018-02-20T05:39:12.419Z,31.40
2018-02-20T05:41:40.745Z,25.20
2018-02-20T05:44:08.348Z,27.65
2018-02-20T05:46:36.970Z,27.27
2018-02-20T05:49:04.570Z,27.08
2018-02-20T05:51:32.165Z,27.95
2018-02-20T05:54:00.527Z,27.37
2018-02-20T05:56:28.954Z,27.77
2018-02-20T05:58:56.564Z,28.73
2018-02-20T06:01:24.890Z,26.67
2018-02-20T06:03:52.546Z,28.08
2018-02-20T06:06:20.848Z,28.80
2018-02-20T06:08:48.422Z,28.20
2018-02-20T06:11:16.034Z,30.00
2018-02-20T06:13:43.602Z,29.33
2018-02-20T06:16:11.211Z,29.73
2018-02-20T06:18:39.562Z,28.10
2018-02-20T06:21:07.926Z,29.70
2018-02-20T06:23:35.602Z,27.42
2018-02-20T06:26:03.946Z,29.87
2018-02-20T06:28:31.506Z,28.60
2018-02-20T06:30:59.064Z,27.30
2018-02-20T06:33:26.715Z,29.23
2018-02-20T06:35:54.307Z,28.80
2018-02-20T06:38:21.889Z,29.12
2018-02-20T06:40:49.474Z,26.10
2018-02-20T06:43:17.062Z,25.83
2018-02-20T06:45:44.916Z,24.67
2018-02-20T06:48:12.615Z,23.52
2018-02-20T06:50:40.298Z,18.50
2018-02-20T06:53:07.846Z,17.08
2018-02-20T06:55:35.538Z,18.80
2018-02-20T06:58:03.130Z,15.93
2018-02-20T07:00:30.749Z,18.67
2018-02-20T07:02:59.174Z,18.45
2018-02-20T07:05:26.839Z,17.40
2018-02-20T07:07:54.411Z,17.45
2018-02-20T07:10:22.027Z,17.50
2018-02-20T07:12:49.676Z,15.93
2018-02-20T07:15:17.311Z,14.43
2018-02-20T07:17:44.902Z,14.70
2018-02-20T07:20:12.459Z,12.73
2018-02-20T07:22:40.055Z,12.00
2018-02-20T07:25:07.617Z,12.80
2018-02-20T07:27:35.301Z,14.45
2018-02-20T07:30:02.883Z,14.07
2018-02-20T07:32:31.378Z,13.30
2018-02-20T07:34:58.952Z,11.93
2018-02-20T07:37:26.567Z,11.70
2018-02-20T07:39:55.047Z,11.10
2018-02-20T07:42:23.417Z,9.48
2018-02-20T07:44:51.783Z,12.95
2018-02-20T07:47:19.367Z,13.50
2018-02-20T07:49:47.736Z,11.65
2018-02-20T07:52:16.063Z,11.77
2018-02-20T07:54:43.623Z,12.02
2018-02-20T07:57:11.215Z,13.48
2018-02-20T07:59:38.790Z,13.52
2018-02-20T08:02:07.147Z,14.43
2018-02-20T08:04:34.710Z,14.70
2018-02-20T08:07:02.314Z,15.40
2018-02-20T08:09:29.914Z,14.90
2018-02-20T08:11:57.499Z,14.38
2018-02-20T08:14:25.852Z,14.85
2018-02-20T08:16:53.463Z,14.25
2018-02-20T08:19:21.056Z,15.23
2018-02-20T08:21:48.642Z,15.50
2018-02-20T08:24:16.354Z,14.93
2018-02-20T08:26:43.922Z,14.52
2018-02-20T08:29:11.516Z,15.95
2018-02-20T08:31:39.084Z,15.77
2018-02-20T08:34:06.695Z,15.88
2018-02-20T08:36:34.279Z,16.92
2018-02-20T08:39:01.847Z,19.20
2018-02-20T08:41:29.438Z,21.00
2018-02-20T08:43:57.766Z,20.37
2018-02-20T08:46:25.352Z,19.98
2018-02-20T08:48:52.914Z,20.80
2018-02-20T08:51:20.670Z,20.27
2018-02-20T08:53:48.230Z,20.12
2018-02-20T08:56:15.822Z,22.87
2018-02-20T08:58:43.382Z,21.40
2018-02-20T09:01:10.983Z,22.42
2018-02-20T09:03:38.529Z,22.08
2018-02-20T09:06:06.116Z,19.35
2018-02-20T09:08:33.711Z,20.23
2018-02-20T09:11:02.046Z,20.83
2018-02-20T09:13:29.643Z,18.05
2018-02-20T09:15:57.979Z,17.25
2018-02-20T09:18:25.582Z,19.35
2018-02-20T09:20:53.275Z,19.52
2018-02-20T09:23:20.883Z,22.25
2018-02-20T09:25:48.435Z,22.90
2018-02-20T09:28:16.047Z,23.77
2018-02-20T09:30:43.603Z,25.25
2018-02-20T09:33:11.211Z,24.85
2018-02-20T09:35:38.795Z,25.42
2018-02-20T09:38:07.122Z,26.37
2018-02-20T09:40:34.732Z,28.80
2018-02-20T09:43:03.062Z,28.20
2018-02-20T09:45:30.650Z,28.77
2018-02-20T09:47:59.045Z,27.70
2018-02-20T09:50:27.422Z,28.08
2018-02-20T09:52:54.986Z,26.92
2018-02-20T09:55:22.595Z,29.20
2018-02-20T09:57:50.186Z,29.20
2018-02-20T10:00:18.561Z,29.12
2018-02-20T10:02:46.936Z,30.17
2018-02-20T10:05:15.278Z,30.25
2018-02-20T10:07:42.866Z,29.02
2018-02-20T10:10:10.422Z,29.48
2018-02-20T10:12:38.019Z,31.37
2018-02-20T10:15:05.591Z,30.90
2018-02-20T10:17:33.232Z,31.08
2018-02-20T10:20:00.893Z,29.87
2018-02-20T10:22:28.423Z,28.25
2018-02-20T10:24:56.006Z,29.73
2018-02-20T10:27:23.575Z,27.80
2018-02-20T10:29:51.178Z,30.62
2018-02-20T10:32:18.731Z,30.05
2018-02-20T10:34:46.290Z,29.12
2018-02-20T10:37:13.882Z,30.58
2018-02-20T10:39:42.207Z,26.95
2018-02-20T10:42:09.913Z,27.35
2018-02-20T10:44:38.238Z,28.40
2018-02-20T10:47:05.840Z,24.80
2018-02-20T10:49:33.414Z,25.33
2018-02-20T10:52:01.824Z,24.45
2018-02-20T10:54:29.406Z,22.10
2018-02-20T10:56:56.992Z,19.77
2018-02-20T10:59:24.574Z,20.23
2018-02-20T11:01:52.967Z,17.92
2018-02-20T11:04:20.670Z,17.85
2018-02-20T11:06:48.233Z,18.27
2018-02-20T11:09:15.790Z,18.37
2018-02-20T11:11:43.411Z,18.25
2018-02-20T11:14:10.974Z,18.42
2018-02-20T11:16:38.571Z,17.52
2018-02-20T11:19:06.127Z,17.42
2018-02-20T11:21:33.722Z,18.65
2018-02-20T11:24:02.054Z,20.50
2018-02-20T11:26:29.644Z,19.30
2018-02-20T11:28:57.205Z,19.45
2018-02-20T11:31:24.807Z,17.67
2018-02-20T11:33:52.366Z,16.37
2018-02-20T11:36:19.931Z,17.70
2018-02-20T11:38:47.512Z,18.48
2018-02-20T11:41:15.100Z,18.92
2018-02-20T11:43:43.488Z,19.70
2018-02-20T11:46:11.825Z,21.02
2018-02-20T11:48:39.557Z,21.37
2018-02-20T11:51:07.111Z,22.40
2018-02-20T11:53:34.674Z,21.77
2018-02-20T11:56:02.275Z,20.23
2018-02-20T11:58:29.859Z,17.60
2018-02-20T12:00:58.359Z,18.87
2018-02-20T12:03:25.932Z,18.17
2018-02-20T12:05:53.523Z,21.17
2018-02-20T12:08:21.092Z,21.40
2018-02-20T12:10:48.674Z,20.70
2018-02-20T12:13:17.081Z,21.98
2018-02-20T12:15:44.763Z,20.02
2018-02-20T12:18:12.335Z,23.60
2018-02-20T12:20:39.979Z,22.35
2018-02-20T12:23:07.570Z,23.80
2018-02-20T12:25:35.210Z,22.58
2018-02-20T12:28:02.811Z,22.35
2018-02-20T12:30:31.163Z,22.73
2018-02-20T12:32:58.735Z,23.05
2018-02-20T12:35:27.084Z,22.73
2018-02-20T12:37:54.670Z,23.73
2018-02-20T12:40:23.010Z,23.50
2018-02-20T12:42:50.617Z,24.42
2018-02-20T12:45:19.201Z,24.75
2018-02-20T12:47:47.563Z,24.08
2018-02-20T12:50:15.157Z,27.05
2018-02-20T12:52:42.922Z,24.75
2018-02-20T12:55:10.520Z,27.20
2018-02-20T12:57:38.090Z,22.15
2018-02-20T13:00:07.166Z,24.23
2018-02-20T13:02:34.762Z,25.95
2018-02-20T13:05:03.146Z,28.23
2018-02-20T13:07:30.728Z,27.42
2018-02-20T13:09:58.310Z,29.83
2018-02-20T13:12:26.778Z,29.42
2018-02-20T13:14:54.491Z,29.83
2018-02-20T13:17:22.095Z,27.40
2018-02-20T13:19:49.680Z,29.30
2018-02-20T13:22:17.338Z,31.73
2018-02-20T13:24:44.950Z,29.87
2018-02-20T13:27:12.527Z,27.65
2018-02-20T13:29:40.109Z,31.12
2018-02-20T13:32:07.719Z,29.55
2018-02-20T13:34:36.214Z,28.98
2018-02-20T13:37:03.784Z,28.77
2018-02-20T13:39:31.408Z,30.77
2018-02-20T13:41:59.765Z,29.45
2018-02-20T13:44:27.334Z,30.20
2018-02-20T13:46:54.922Z,30.62
2018-02-20T13:49:23.252Z,27.67
2018-02-20T13:51:50.867Z,29.10
2018-02-20T13:54:18.579Z,31.83
2018-02-20T13:56:46.162Z,27.87
2018-02-20T13:59:13.790Z,27.92
2018-02-20T14:01:41.383Z,29.25
2018-02-20T14:04:09.771Z,27.77
2018-02-20T14:06:38.387Z,26.40
2018-02-20T14:09:06.002Z,28.02
2018-02-20T14:11:34.319Z,27.25
2018-02-20T14:14:01.908Z,29.17
2018-02-20T14:16:29.650Z,28.35
2018-02-20T14:18:57.242Z,27.98
2018-02-20T14:21:24.804Z,28.05
2018-02-20T14:23:52.424Z,26.77
2018-02-20T14:26:19.987Z,26.75
2018-02-20T14:28:47.583Z,26.35
2018-02-20T14:31:15.147Z,28.27
2018-02-20T14:33:43.571Z,26.62
2018-02-20T14:36:11.179Z,27.85
2018-02-20T14:38:38.780Z,25.15
2018-02-20T14:41:06.339Z,30.17
2018-02-20T14:43:33.962Z,27.48
2018-02-20T14:46:02.299Z,27.87
2018-02-20T14:48:29.926Z,24.80
2018-02-20T14:50:57.482Z,25.02
2018-02-20T14:53:25.087Z,25.40
2018-02-20T14:55:52.690Z,23.85
2018-02-20T14:58:21.021Z,26.30
2018-02-20T15:00:48.607Z,24.87
2018-02-20T15:03:16.324Z,22.60
2018-02-20T15:05:44.031Z,22.02
2018-02-20T15:08:12.363Z,22.55
2018-02-20T15:10:39.975Z,23.58
2018-02-20T15:13:08.309Z,22.52
2018-02-20T15:15:35.942Z,21.37
2018-02-20T15:18:03.515Z,22.67
2018-02-20T15:20:31.127Z,21.48
2018-02-20T15:22:59.491Z,24.08
2018-02-20T15:25:27.062Z,20.17
2018-02-20T15:27:55.446Z,22.33
2018-02-20T15:30:23.819Z,23.48
2018-02-20T15:32:52.183Z,25.50
2018-02-20T15:35:19.767Z,25.12
2018-02-20T15:37:48.126Z,22.13
2018-02-20T15:40:16.455Z,26.10
2018-02-20T15:42:44.035Z,26.62
2018-02-20T15:45:11.631Z,24.20
2018-02-20T15:47:39.951Z,25.40
2018-02-20T15:50:07.547Z,24.48
2018-02-20T15:52:35.132Z,22.58
2018-02-20T15:55:03.542Z,26.33
2018-02-20T15:57:31.107Z,26.45
2018-02-20T15:59:58.727Z,24.35
2018-02-20T16:02:27.102Z,25.35
2018-02-20T16:04:55.443Z,26.30
2018-02-20T16:07:24.554Z,25.88
2018-02-20T16:09:53.635Z,27.85
2018-02-20T16:12:22.135Z,26.27
2018-02-20T16:14:50.471Z,26.20
2018-02-20T16:17:18.088Z,28.33
2018-02-20T16:19:46.616Z,27.37
2018-02-20T16:22:14.247Z,24.30
2018-02-20T16:24:41.819Z,23.70
2018-02-20T16:27:09.386Z,26.80
2018-02-20T16:29:36.987Z,24.15
2018-02-20T16:32:05.400Z,24.77
2018-02-20T16:34:33.005Z,24.33
2018-02-20T16:37:00.591Z,26.87
2018-02-20T16:39:29.030Z,26.02
2018-02-20T16:41:56.759Z,25.02
2018-02-20T16:44:24.340Z,25.33
2018-02-20T16:46:51.935Z,25.33
2018-02-20T16:49:19.497Z,25.45
2018-02-20T16:51:47.078Z,25.92
2018-02-20T16:54:14.642Z,25.08
2018-02-20T16:56:42.244Z,25.90
2018-02-20T16:59:09.840Z,25.73
2018-02-20T17:01:38.210Z,25.30
2018-02-20T17:04:05.791Z,24.48
2018-02-20T17:06:33.495Z,27.23
2018-02-20T17:09:01.090Z,25.52
2018-02-20T17:11:28.659Z,23.35
2018-02-20T17:13:57.110Z,26.45
2018-02-20T17:16:25.555Z,25.67
2018-02-20T17:18:53.182Z,23.42
2018-02-20T17:21:21.723Z,28.42
2018-02-20T17:23:49.315Z,25.00
2018-02-20T17:26:17.644Z,25.90
2018-02-20T17:28:45.256Z,26.30
2018-02-20T17:31:13.581Z,25.62
2018-02-20T17:33:41.155Z,25.17
2018-02-20T17:36:08.750Z,24.02
2018-02-20T17:38:36.337Z,26.67
2018-02-20T17:41:03.970Z,23.20
2018-02-20T17:43:32.435Z,23.95
2018-02-20T17:46:00.789Z,25.00
2018-02-20T17:48:28.413Z,24.33
2018-02-20T17:50:56.035Z,24.60
2018-02-20T17:53:23.638Z,22.85
2018-02-20T17:55:51.321Z,25.58
2018-02-20T17:58:18.952Z,24.70
2018-02-20T18:00:46.508Z,26.10
2018-02-20T18:03:14.279Z,24.37
2018-02-20T18:05:41.866Z,24.70
2018-02-20T18:08:09.496Z,23.95
2018-02-20T18:10:37.079Z,25.02
2018-02-20T18:13:04.684Z,27.17
2018-02-20T18:15:33.195Z,28.83
2018-02-20T18:18:00.795Z,27.37
2018-02-20T18:20:28.390Z,26.55
2018-02-20T18:25:34.719Z,30.48
2018-02-20T18:28:02.298Z,26.73
2018-02-20T18:30:29.927Z,29.40
2018-02-20T18:32:57.544Z,24.37
2018-02-20T18:35:25.928Z,28.42
2018-02-20T18:37:53.509Z,26.85
2018-02-20T18:40:21.179Z,29.23
2018-02-20T18:42:48.777Z,27.80
2018-02-20T18:45:17.148Z,28.05
2018-02-20T18:47:44.759Z,27.08
2018-02-20T18:50:12.335Z,30.42
2018-02-20T18:52:39.928Z,27.48
2018-02-20T18:55:07.491Z,26.12
2018-02-20T18:57:35.120Z,26.62
2018-02-20T19:00:02.831Z,27.42
2018-02-20T19:02:31.195Z,24.08
2018-02-20T19:04:59.528Z,25.88
2018-02-20T19:07:27.105Z,26.48
2018-02-20T19:09:54.702Z,27.23
2018-02-20T19:12:23.107Z,27.48
2018-02-20T19:14:50.704Z,27.83
2018-02-20T19:17:18.353Z,25.30
2018-02-20T19:19:46.043Z,26.60
2018-02-20T19:22:13.620Z,30.35
2018-02-20T19:27:16.590Z,27.62
2018-02-20T19:29:44.235Z,25.80
2018-02-20T19:32:11.838Z,29.17
2018-02-20T19:34:40.207Z,28.38
2018-02-20T19:37:08.552Z,28.42
2018-02-20T19:39:36.133Z,27.85
2018-02-20T19:42:03.886Z,28.83
2018-02-20T19:44:31.607Z,27.30
2018-02-20T19:46:59.235Z,26.35
2018-02-20T19:49:27.785Z,28.98
2018-02-20T19:51:55.371Z,27.10
2018-02-20T19:54:23.744Z,31.42
2018-02-20T19:56:52.211Z,27.13
2018-02-20T19:59:19.987Z,26.95
2018-02-20T20:01:48.338Z,29.12
2018-02-20T20:04:15.948Z,27.58
2018-02-20T20:06:43.515Z,28.85
2018-02-20T20:09:11.119Z,28.92
2018-02-20T20:11:38.727Z,29.63
2018-02-20T20:14:06.297Z,27.60
2018-02-20T20:16:33.930Z,28.87
2018-02-20T20:19:02.304Z,29.42
2018-02-20T20:21:29.878Z,27.20
2018-02-20T20:23:58.199Z,29.35
2018-02-20T20:26:25.788Z,29.27
2018-02-20T20:28:53.364Z,30.88
2018-02-20T20:31:21.771Z,29.17
2018-02-20T20:33:49.355Z,28.48
2018-02-20T20:36:16.932Z,26.25
2018-02-20T20:38:44.599Z,26.90
2018-02-20T20:41:12.190Z,33.83
2018-02-20T20:43:39.799Z,32.15
2018-02-20T20:46:07.360Z,30.08
2018-02-20T20:48:35.045Z,25.62
2018-02-20T20:51:03.379Z,26.10
2018-02-20T20:53:30.988Z,29.90
2018-02-20T20:55:59.320Z,28.87
2018-02-20T20:58:26.923Z,30.30
2018-02-20T21:00:55.287Z,29.73
2018-02-20T21:03:22.864Z,31.50
2018-02-20T21:05:51.215Z,31.55
2018-02-20T21:08:18.783Z,32.15
2018-02-20T21:10:46.395Z,30.20
2018-02-20T21:13:13.966Z,31.77
2018-02-20T21:15:41.570Z,31.58
2018-02-20T21:18:10.050Z,31.95
2018-02-20T21:20:38.525Z,29.58
2018-02-20T21:23:06.899Z,30.62
2018-02-20T21:25:34.486Z,31.35
2018-02-20T21:28:02.275Z,30.60
2018-02-20T21:30:29.847Z,31.25
2018-02-20T21:32:57.514Z,31.65
2018-02-20T21:35:25.099Z,32.05
2018-02-20T21:37:52.719Z,29.90
2018-02-20T21:40:20.379Z,30.48
2018-02-20T21:42:47.984Z,28.90
2018-02-20T21:45:16.343Z,33.80
2018-02-20T21:47:43.974Z,29.00
2018-02-20T21:50:11.564Z,29.95
2018-02-20T21:52:39.176Z,29.37
2018-02-20T21:55:06.787Z,32.30
2018-02-20T21:57:34.446Z,31.05
2018-02-20T22:00:02.068Z,32.83
2018-02-20T22:02:29.814Z,30.10
2018-02-20T22:04:57.484Z,30.58
2018-02-20T22:07:25.100Z,32.35
2018-02-20T22:09:53.484Z,30.62
2018-02-20T22:12:21.843Z,29.98
2018-02-20T22:14:49.439Z,31.35
2018-02-20T22:17:17.104Z,31.52
2018-02-20T22:19:44.695Z,29.30
2018-02-20T22:22:12.403Z,30.67
2018-02-20T22:24:40.827Z,31.12
2018-02-20T22:27:08.467Z,31.25
2018-02-20T22:29:36.073Z,30.40
2018-02-20T22:32:03.644Z,31.27
2018-02-20T22:34:31.253Z,30.42
2018-02-20T22:36:58.867Z,30.83
2018-02-20T22:39:26.440Z,30.70
2018-02-20T22:41:54.922Z,31.17
2018-02-20T22:44:23.329Z,31.90
2018-02-20T22:46:50.966Z,30.45
2018-02-20T22:49:18.553Z,34.88
2018-02-20T22:51:46.127Z,30.80
2018-02-20T22:54:13.836Z,29.70
2018-02-20T22:56:42.216Z,30.55
2018-02-20T22:59:10.726Z,31.25
2018-02-20T23:01:38.310Z,32.20
2018-02-20T23:04:05.962Z,29.85
2018-02-20T23:06:33.547Z,32.85
2018-02-20T23:09:01.179Z,33.28
2018-02-20T23:11:40.671Z,30.17
2018-02-20T23:14:09.060Z,33.45
2018-02-20T23:16:36.663Z,31.60
2018-02-20T23:19:04.259Z,31.17
2018-02-20T23:21:32.647Z,32.58
2018-02-20T23:24:01.035Z,31.65
2018-02-20T23:26:28.867Z,31.25
2018-02-20T23:28:56.523Z,31.52
2018-02-20T23:31:24.091Z,32.15
2018-02-20T23:33:51.812Z,31.62
2018-02-20T23:36:19.413Z,28.58
2018-02-20T23:38:46.983Z,34.13
2018-02-20T23:41:15.371Z,31.70
2018-02-20T23:43:42.932Z,21.80
2018-02-20T23:46:10.513Z,30.98
2018-02-20T23:48:38.221Z,30.10
2018-02-20T23:51:11.447Z,28.67
2018-02-20T23:53:39.101Z,26.87
2018-02-20T23:56:06.659Z,27.98
2018-02-20T23:58:35.011Z,31.10
